Time;durP1;ratioP1;P1;durP2;ratioP2;P2;SDS_P1;SDS_P2;PMS_P1;PMS_P2;Temp;Humidity;BMP_temperature;BMP_pressure;BME280_temperature;BME280_humidity;BME280_pressure;Samples;Min_cycle;Max_cycle;Signal;HPM_P1;HPM_P2
2024/01/31 00:03:29;;;;;;;11.10;7.70;;;;;;;1.85;72.18;100322.92;226316;1270;22543;-79
2024/01/31 00:08:31;;;;;;;12.50;7.30;;;;;;;1.81;72.21;100315.01;226450;1274;22544;-80
2024/01/31 00:13:34;;;;;;;12.90;7.70;;;;;;;1.76;72.50;100319.11;226411;1270;26099;-80
2024/01/31 00:18:36;;;;;;;11.40;7.40;;;;;;;1.74;72.72;100319.23;226447;1273;22577;-79
2024/01/31 00:23:38;;;;;;;11.70;6.80;;;;;;;1.71;72.88;100311.08;226551;1273;22583;-80
2024/01/31 00:28:40;;;;;;;12.60;8.30;;;;;;;1.70;73.09;100317.54;226564;1274;25300;-80
2024/01/31 00:33:42;;;;;;;12.50;8.70;;;;;;;1.69;73.20;100314.82;226329;1270;22565;-79
2024/01/31 00:38:44;;;;;;;12.90;8.50;;;;;;;1.68;73.24;100314.91;226568;1274;23095;-80
2024/01/31 00:43:46;;;;;;;14.00;7.80;;;;;;;1.65;73.28;100317.36;226344;1274;22574;-79
2024/01/31 00:48:48;;;;;;;12.90;7.90;;;;;;;1.65;73.70;100320.84;226428;1273;22587;-79
2024/01/31 00:53:50;;;;;;;12.60;8.90;;;;;;;1.63;73.63;100312.23;226578;1268;23081;-80
2024/01/31 00:58:52;;;;;;;13.60;8.80;;;;;;;1.60;73.72;100295.97;226375;1274;22552;-78
2024/01/31 01:03:54;;;;;;;12.70;9.60;;;;;;;1.57;73.81;100296.32;226548;1271;22473;-78
2024/01/31 01:08:56;;;;;;;14.60;9.10;;;;;;;1.55;74.06;100302.52;226413;1273;22585;-79
2024/01/31 01:13:58;;;;;;;13.50;9.60;;;;;;;1.50;74.10;100297.23;226426;1273;22624;-79
2024/01/31 01:19:01;;;;;;;16.10;9.70;;;;;;;1.45;74.29;100297.07;226271;1274;22678;-79
2024/01/31 01:24:04;;;;;;;12.40;9.00;;;;;;;1.40;74.24;100297.50;226378;1269;23102;-79
2024/01/31 01:29:07;;;;;;;16.50;10.30;;;;;;;1.35;74.36;100296.61;226357;1270;22686;-78
2024/01/31 01:34:11;;;;;;;14.70;9.40;;;;;;;1.30;74.41;100297.80;226398;1272;22570;-80
2024/01/31 01:39:13;;;;;;;13.20;9.00;;;;;;;1.26;74.80;100300.46;226570;1267;22527;-80
2024/01/31 01:44:15;;;;;;;14.40;10.30;;;;;;;1.24;74.99;100300.05;226619;1270;22567;-78
2024/01/31 01:49:17;;;;;;;14.50;10.10;;;;;;;1.22;75.03;100302.93;226499;1272;25275;-80
2024/01/31 01:54:22;;;;;;;15.00;10.00;;;;;;;1.22;75.26;100299.16;226398;1274;22544;-79
2024/01/31 01:59:24;;;;;;;14.40;8.00;;;;;;;1.21;75.42;100292.92;226503;1274;22607;-78
2024/01/31 02:04:28;;;;;;;15.80;9.60;;;;;;;1.22;75.64;100296.89;226396;1273;22548;-78
2024/01/31 02:09:31;;;;;;;15.20;10.90;;;;;;;1.23;75.68;100295.27;226378;1270;24629;-78
2024/01/31 02:14:33;;;;;;;17.70;11.40;;;;;;;1.22;75.70;100292.19;226440;1251;22588;-79
2024/01/31 02:19:36;;;;;;;17.20;10.30;;;;;;;1.21;75.67;100292.40;226394;1273;22545;-78
2024/01/31 02:24:38;;;;;;;15.90;10.00;;;;;;;1.20;75.92;100293.00;226573;1271;22552;-79
2024/01/31 02:29:40;;;;;;;16.40;10.90;;;;;;;1.21;76.04;100296.41;226401;1273;24395;-78
2024/01/31 02:34:42;;;;;;;16.70;11.90;;;;;;;1.22;76.09;100292.02;226569;1270;22543;-79
2024/01/31 02:39:44;;;;;;;16.10;10.30;;;;;;;1.22;76.28;100294.64;226538;1272;23117;-79
2024/01/31 02:44:45;;;;;;;20.00;11.90;;;;;;;1.22;76.14;100295.64;226330;1273;22589;-79
2024/01/31 02:49:48;;;;;;;17.90;11.50;;;;;;;1.24;76.24;100296.41;226353;1274;22550;-80
2024/01/31 02:54:51;;;;;;;17.20;11.60;;;;;;;1.27;76.40;100295.56;226547;1274;22555;-79
2024/01/31 02:59:53;;;;;;;20.10;11.00;;;;;;;1.29;76.38;100291.77;226337;1259;22556;-78
2024/01/31 03:04:55;;;;;;;16.30;11.60;;;;;;;1.33;76.59;100296.04;226401;1274;22554;-78
2024/01/31 03:09:57;;;;;;;16.20;11.70;;;;;;;1.38;76.53;100296.75;226429;1260;22539;-80
2024/01/31 03:14:59;;;;;;;17.30;11.70;;;;;;;1.42;76.53;100295.83;226484;1266;22571;-78
2024/01/31 03:20:05;;;;;;;17.20;11.30;;;;;;;1.45;76.43;100291.34;226414;1272;23065;-79
2024/01/31 03:25:08;;;;;;;16.80;11.80;;;;;;;1.48;76.25;100293.42;226649;1273;22548;-79
2024/01/31 03:30:10;;;;;;;17.60;11.80;;;;;;;1.51;76.46;100287.15;226239;1271;22543;-79
2024/01/31 03:35:12;;;;;;;17.70;11.90;;;;;;;1.55;76.50;100284.84;226427;1268;22571;-79
2024/01/31 03:40:14;;;;;;;18.10;12.30;;;;;;;1.59;76.38;100277.27;226432;1273;22576;-78
2024/01/31 03:45:16;;;;;;;17.90;12.20;;;;;;;1.64;76.34;100282.85;226555;1271;22568;-78
2024/01/31 03:50:19;;;;;;;16.70;12.30;;;;;;;1.67;76.58;100289.60;226517;1264;22575;-79
2024/01/31 03:55:22;;;;;;;15.90;11.30;;;;;;;1.72;76.53;100294.35;226432;1273;22530;-79
2024/01/31 04:00:24;;;;;;;16.90;12.50;;;;;;;1.74;76.50;100293.15;226578;1271;22566;-79
2024/01/31 04:05:25;;;;;;;15.40;10.70;;;;;;;1.76;76.51;100296.52;226475;1274;22545;-80
2024/01/31 04:10:28;;;;;;;16.70;11.90;;;;;;;1.78;76.42;100302.16;226391;1274;22565;-80
2024/01/31 04:15:30;;;;;;;17.90;12.80;;;;;;;1.79;76.47;100300.84;226305;1273;22547;-80
2024/01/31 04:20:42;;;;;;;18.10;12.10;;;;;;;1.79;76.42;100301.77;226425;1272;22547;-79
2024/01/31 04:25:44;;;;;;;18.20;11.70;;;;;;;1.77;76.42;100299.42;226386;1272;22551;-79
2024/01/31 04:30:46;;;;;;;18.80;12.70;;;;;;;1.78;76.55;100306.18;226496;1264;22547;-80
2024/01/31 04:35:50;;;;;;;19.70;12.60;;;;;;;1.79;76.73;100304.50;226552;1267;22543;-80
2024/01/31 04:40:52;;;;;;;19.70;12.90;;;;;;;1.79;76.51;100296.38;226518;1274;22571;-79
2024/01/31 04:45:55;;;;;;;21.40;14.60;;;;;;;1.78;76.56;100295.91;226433;1274;22579;-79
2024/01/31 04:50:56;;;;;;;21.40;14.10;;;;;;;1.76;76.66;100297.56;226419;1272;25523;-79
2024/01/31 04:56:00;;;;;;;21.10;13.20;;;;;;;1.76;76.71;100299.48;226442;1273;23180;-80
2024/01/31 05:01:03;;;;;;;21.60;13.50;;;;;;;1.76;76.84;100305.02;226533;1271;22559;-81
2024/01/31 05:06:05;;;;;;;23.00;14.70;;;;;;;1.76;76.71;100300.52;226424;1273;22545;-80
2024/01/31 05:11:07;;;;;;;23.20;14.70;;;;;;;1.75;76.79;100300.42;226364;1274;22574;-79
2024/01/31 05:16:09;;;;;;;21.90;14.20;;;;;;;1.74;76.75;100308.48;226480;1273;24157;-78
2024/01/31 05:21:12;;;;;;;23.60;13.70;;;;;;;1.73;76.86;100313.54;226380;1273;22608;-80
2024/01/31 05:26:14;;;;;;;20.10;14.10;;;;;;;1.73;76.86;100314.76;226343;1273;22590;-80
2024/01/31 05:31:16;;;;;;;21.60;13.90;;;;;;;1.74;76.98;100315.38;226351;1266;22574;-80
2024/01/31 05:36:18;;;;;;;23.30;14.50;;;;;;;1.74;76.84;100321.80;226373;1273;22565;-80
2024/01/31 05:41:21;;;;;;;25.20;16.10;;;;;;;1.75;76.91;100324.02;226225;1271;22557;-79
2024/01/31 05:46:22;;;;;;;23.50;14.50;;;;;;;1.77;76.96;100329.33;226533;1271;22557;-79
2024/01/31 05:51:24;;;;;;;22.20;15.20;;;;;;;1.81;77.09;100330.80;226417;1270;22567;-80
2024/01/31 05:56:26;;;;;;;20.10;14.10;;;;;;;1.86;77.08;100330.48;226381;1272;22582;-80
2024/01/31 06:01:28;;;;;;;25.20;16.50;;;;;;;1.91;77.16;100333.48;226302;1271;22563;-80
2024/01/31 06:06:31;;;;;;;23.40;16.70;;;;;;;1.95;77.13;100337.40;226426;1269;22652;-78
2024/01/31 06:11:33;;;;;;;25.10;16.50;;;;;;;1.99;77.08;100339.39;226554;1272;22899;-79
2024/01/31 06:16:35;;;;;;;25.00;16.50;;;;;;;2.03;77.00;100345.93;226472;1270;22598;-80
2024/01/31 06:21:37;;;;;;;22.80;14.90;;;;;;;2.05;77.10;100342.34;226279;1274;22546;-79
2024/01/31 06:26:40;;;;;;;22.50;14.00;;;;;;;2.07;77.06;100335.10;226405;1274;22596;-80
2024/01/31 06:31:46;;;;;;;27.60;17.10;;;;;;;2.09;77.04;100339.95;226421;1274;22530;-79
2024/01/31 06:36:48;;;;;;;25.30;16.30;;;;;;;2.11;76.96;100347.15;226242;1274;23809;-80
2024/01/31 06:41:52;;;;;;;21.80;14.90;;;;;;;2.13;76.93;100350.66;226299;1272;25362;-79
2024/01/31 06:46:54;;;;;;;28.50;16.60;;;;;;;2.15;76.96;100351.61;226362;1273;22550;-80
2024/01/31 06:51:56;;;;;;;25.30;15.80;;;;;;;2.17;77.04;100358.27;226310;1267;22542;-79
2024/01/31 06:56:58;;;;;;;49.30;31.90;;;;;;;2.20;77.07;100359.30;226329;1270;22539;-79
2024/01/31 07:02:00;;;;;;;28.90;17.80;;;;;;;2.23;77.00;100362.77;226262;1267;22644;-79
2024/01/31 07:07:04;;;;;;;26.00;16.80;;;;;;;2.28;77.01;100359.48;226152;1267;23763;-78
2024/01/31 07:12:06;;;;;;;27.50;18.10;;;;;;;2.30;76.93;100353.59;226115;1267;22608;-80
2024/01/31 07:17:09;;;;;;;26.00;16.90;;;;;;;2.34;76.87;100344.85;226017;1256;22890;-78
2024/01/31 07:22:11;;;;;;;23.90;16.30;;;;;;;2.38;76.86;100344.92;226084;1256;23067;-83
2024/01/31 07:27:13;;;;;;;26.20;17.10;;;;;;;2.42;76.66;100345.73;225968;1272;25357;-80
2024/01/31 07:32:15;;;;;;;23.60;16.60;;;;;;;2.44;76.69;100345.90;226292;1268;22531;-80
2024/01/31 07:37:17;;;;;;;27.90;18.70;;;;;;;2.48;76.68;100348.10;226275;1274;22547;-79
2024/01/31 07:42:19;;;;;;;23.20;16.20;;;;;;;2.54;76.74;100357.67;226297;1252;23105;-80
2024/01/31 07:47:21;;;;;;;25.90;17.50;;;;;;;2.59;76.70;100356.98;226408;1263;22558;-79
2024/01/31 07:52:23;;;;;;;25.50;17.60;;;;;;;2.61;76.57;100358.71;226262;1259;25052;-79
2024/01/31 07:57:25;;;;;;;25.90;18.00;;;;;;;2.64;76.42;100359.29;226160;1271;22558;-80
2024/01/31 08:02:27;;;;;;;28.70;17.90;;;;;;;2.68;76.54;100355.50;226054;1274;25504;-79
2024/01/31 08:07:29;;;;;;;26.80;18.10;;;;;;;2.74;76.44;100346.77;226218;1259;22559;-80
2024/01/31 08:12:31;;;;;;;30.20;18.40;;;;;;;2.79;76.49;100344.00;225854;1258;24307;-80
2024/01/31 08:17:33;;;;;;;26.80;18.20;;;;;;;2.85;76.36;100349.36;226238;1253;24316;-80
2024/01/31 08:22:35;;;;;;;26.00;17.10;;;;;;;2.90;76.33;100347.28;226046;1270;22543;-78
2024/01/31 08:27:41;;;;;;;26.60;18.40;;;;;;;2.96;76.33;100349.15;226138;1267;22551;-79
2024/01/31 08:32:44;;;;;;;26.10;17.80;;;;;;;3.03;76.25;100348.34;226172;1274;22551;-79
2024/01/31 08:37:48;;;;;;;27.30;16.50;;;;;;;3.07;76.13;100342.48;226451;1273;22574;-79
2024/01/31 08:42:50;;;;;;;24.80;17.20;;;;;;;3.11;75.86;100346.58;226261;1259;291201;-81
2024/01/31 08:47:51;;;;;;;28.30;19.50;;;;;;;3.14;75.83;100343.89;226568;1262;22561;-78
2024/01/31 08:52:54;;;;;;;26.00;16.70;;;;;;;3.19;75.87;100346.38;226428;1255;22542;-79
2024/01/31 08:57:56;;;;;;;28.20;19.30;;;;;;;3.25;75.79;100344.65;226456;1267;22560;-83
2024/01/31 09:02:58;;;;;;;30.90;19.70;;;;;;;3.30;75.75;100354.55;226175;1267;22996;-81
2024/01/31 09:08:00;;;;;;;31.60;20.10;;;;;;;3.37;75.89;100359.65;226144;1251;23983;-79
2024/01/31 09:13:02;;;;;;;28.60;19.50;;;;;;;3.41;75.97;100376.80;226172;1274;24751;-79
2024/01/31 09:18:05;;;;;;;30.90;20.30;;;;;;;3.37;75.67;100373.54;226299;1268;22545;-79
2024/01/31 09:23:08;;;;;;;29.90;20.40;;;;;;;3.35;75.99;100384.17;226179;1259;22558;-80
2024/01/31 09:28:10;;;;;;;30.70;20.70;;;;;;;3.34;75.87;100402.13;226317;1268;25320;-78
2024/01/31 09:33:13;;;;;;;33.40;21.60;;;;;;;3.34;76.18;100396.56;225934;1258;22575;-79
2024/01/31 09:38:15;;;;;;;33.20;21.80;;;;;;;3.34;76.54;100380.22;226276;1271;22548;-77
2024/01/31 09:43:18;;;;;;;34.70;23.00;;;;;;;3.35;76.51;100384.52;226218;1268;22591;-79
2024/01/31 09:48:20;;;;;;;34.10;23.30;;;;;;;3.34;76.77;100383.67;226131;1254;22493;-77
2024/01/31 09:53:22;;;;;;;36.30;23.60;;;;;;;3.36;76.82;100392.78;225964;1274;22555;-80
2024/01/31 09:58:24;;;;;;;33.60;22.20;;;;;;;3.40;77.02;100381.77;226028;1268;22550;-80
2024/01/31 10:03:27;;;;;;;33.30;22.90;;;;;;;3.43;77.03;100380.09;225944;1274;22568;-79
2024/01/31 10:08:29;;;;;;;33.10;22.50;;;;;;;3.50;76.99;100381.24;226314;1268;24696;-80
2024/01/31 10:13:32;;;;;;;35.10;23.80;;;;;;;3.53;77.02;100383.42;226030;1268;22572;-80
2024/01/31 10:18:33;;;;;;;37.20;23.50;;;;;;;3.52;76.98;100373.23;226020;1274;22583;-79
2024/01/31 10:23:36;;;;;;;39.00;23.90;;;;;;;3.49;76.85;100374.33;226093;1267;22568;-79
2024/01/31 10:28:38;;;;;;;37.70;24.40;;;;;;;3.44;76.82;100364.55;225844;1269;22550;-82
2024/01/31 10:33:47;;;;;;;39.20;24.90;;;;;;;3.42;77.08;100356.13;226040;1252;22655;-79
2024/01/31 10:38:51;;;;;;;38.10;22.30;;;;;;;3.44;77.08;100353.23;226211;1271;22571;-80
2024/01/31 10:43:54;;;;;;;36.80;24.10;;;;;;;3.45;77.15;100360.79;226235;1258;24489;-78
2024/01/31 10:48:56;;;;;;;33.40;22.30;;;;;;;3.46;77.24;100364.39;226364;1274;23429;-79
2024/01/31 10:54:01;;;;;;;32.50;20.90;;;;;;;3.47;76.84;100364.85;226177;1271;22562;-78
2024/01/31 10:59:06;;;;;;;37.50;23.30;;;;;;;3.49;77.00;100370.10;225992;1262;22550;-78
2024/01/31 11:04:08;;;;;;;33.80;22.10;;;;;;;3.47;76.87;100368.48;225852;1266;23295;-79
2024/01/31 11:09:24;;;;;;;36.20;23.60;;;;;;;3.45;76.77;100357.84;226152;1273;22551;-78
2024/01/31 11:14:30;;;;;;;34.80;24.60;;;;;;;3.46;76.91;100339.98;225993;1273;22980;-79
2024/01/31 11:19:59;;;;;;;40.30;26.10;;;;;;;3.49;77.25;100334.23;225901;1266;22571;-80
2024/01/31 11:25:07;;;;;;;37.60;25.60;;;;;;;3.50;77.15;100335.21;226240;1274;22591;-78
2024/01/31 11:30:10;;;;;;;39.20;26.40;;;;;;;3.51;77.26;100336.21;226378;1273;22589;-76
2024/01/31 11:35:14;;;;;;;35.50;25.20;;;;;;;3.49;77.34;100333.91;226374;1273;22912;-79
2024/01/31 11:40:16;;;;;;;42.90;27.50;;;;;;;3.47;77.69;100320.29;226278;1274;22543;-79
2024/01/31 11:45:18;;;;;;;58.10;31.80;;;;;;;3.47;77.95;100305.46;226556;1273;24196;-79
2024/01/31 11:50:21;;;;;;;44.20;28.40;;;;;;;3.44;78.06;100301.33;226233;1271;24305;-79
2024/01/31 11:55:26;;;;;;;40.40;26.90;;;;;;;3.43;78.43;100301.02;226355;1262;22743;-78
2024/01/31 12:00:29;;;;;;;43.90;29.10;;;;;;;3.48;78.62;100307.18;226201;1274;23312;-78
2024/01/31 12:05:31;;;;;;;42.80;27.20;;;;;;;3.42;78.44;100304.92;226167;1273;23410;-80
2024/01/31 12:10:34;;;;;;;45.70;30.80;;;;;;;3.40;78.50;100307.34;226021;1275;22583;-80
2024/01/31 12:15:36;;;;;;;44.70;31.00;;;;;;;3.38;78.57;100296.00;226039;1271;22554;-79
2024/01/31 12:20:39;;;;;;;42.30;28.70;;;;;;;3.39;78.65;100287.74;225963;1271;22549;-77
2024/01/31 12:25:42;;;;;;;49.50;30.90;;;;;;;3.39;78.54;100291.41;225947;1273;22539;-79
2024/01/31 12:30:44;;;;;;;42.70;28.70;;;;;;;3.37;78.57;100282.99;225928;1267;22595;-78
2024/01/31 12:35:46;;;;;;;45.60;30.20;;;;;;;3.40;78.59;100274.48;226124;1272;24724;-79
2024/01/31 12:40:51;;;;;;;50.80;32.80;;;;;;;3.41;78.87;100277.67;225961;1258;22540;-79
2024/01/31 12:45:53;;;;;;;42.60;27.20;;;;;;;3.44;78.78;100270.19;226105;1269;22989;-80
2024/01/31 12:50:58;;;;;;;39.60;26.80;;;;;;;3.47;78.63;100266.30;225960;1263;22529;-79
2024/01/31 12:56:01;;;;;;;37.00;25.60;;;;;;;3.50;78.80;100271.84;226157;1254;22885;-81
2024/01/31 13:01:03;;;;;;;42.80;28.00;;;;;;;3.51;78.63;100273.85;226078;1252;22600;-80
2024/01/31 13:06:05;;;;;;;41.00;27.80;;;;;;;3.50;78.78;100272.32;225938;1267;22534;-80
2024/01/31 13:11:14;;;;;;;43.40;28.80;;;;;;;3.50;78.67;100272.88;226231;1270;22638;-80
2024/01/31 13:16:16;;;;;;;38.90;26.20;;;;;;;3.50;78.74;100279.30;226067;1270;23171;-79
2024/01/31 13:21:18;;;;;;;40.40;27.80;;;;;;;3.50;78.79;100275.50;226690;1254;22480;-77
2024/01/31 13:26:20;;;;;;;45.90;29.80;;;;;;;3.45;78.59;100270.63;226143;1274;25330;-79
2024/01/31 13:31:22;;;;;;;45.60;29.50;;;;;;;3.43;78.80;100264.31;226000;1257;22545;-78
2024/01/31 13:36:25;;;;;;;46.00;29.30;;;;;;;3.41;78.94;100268.41;226249;1256;22904;-81
2024/01/31 13:41:27;;;;;;;41.50;28.70;;;;;;;3.36;78.91;100268.95;226393;1251;22498;-79
2024/01/31 13:46:29;;;;;;;50.00;31.30;;;;;;;3.31;79.19;100264.59;226341;1271;22584;-80
2024/01/31 13:51:30;;;;;;;49.10;31.50;;;;;;;3.28;79.66;100264.80;226307;1271;22612;-78
2024/01/31 13:56:32;;;;;;;47.30;29.00;;;;;;;3.28;79.80;100262.18;226413;1256;22921;-79
2024/01/31 14:01:34;;;;;;;50.10;31.60;;;;;;;3.26;80.03;100254.35;226395;1272;22550;-80
2024/01/31 14:06:36;;;;;;;47.50;30.90;;;;;;;3.25;80.14;100251.98;226404;1271;22554;-80
2024/01/31 14:11:39;;;;;;;43.40;29.80;;;;;;;3.21;80.29;100244.77;226417;1252;22629;-80
2024/01/31 14:16:41;;;;;;;52.40;34.70;;;;;;;3.19;80.45;100235.65;226381;1255;22560;-79
2024/01/31 14:21:43;;;;;;;50.10;33.60;;;;;;;3.18;80.95;100228.90;226500;1255;22519;-82
2024/01/31 14:26:45;;;;;;;53.30;37.30;;;;;;;3.20;80.95;100210.50;226408;1259;22579;-83
2024/01/31 14:31:47;;;;;;;56.70;38.30;;;;;;;3.23;80.97;100211.55;226329;1253;24784;-83
2024/01/31 14:36:49;;;;;;;58.20;39.70;;;;;;;3.20;81.23;100221.30;226169;1256;23042;-82
2024/01/31 14:41:51;;;;;;;60.90;40.40;;;;;;;3.19;81.35;100216.14;226056;1269;25589;-82
2024/01/31 14:46:53;;;;;;;60.90;40.50;;;;;;;3.18;81.61;100224.27;226214;1262;23670;-82
2024/01/31 14:51:57;;;;;;;58.50;38.50;;;;;;;3.15;81.63;100218.87;226191;1273;22589;-81
2024/01/31 14:56:59;;;;;;;86.70;57.50;;;;;;;3.09;81.78;100209.52;226321;1274;24249;-81
2024/01/31 15:02:02;;;;;;;64.20;42.00;;;;;;;3.02;81.73;100202.90;225909;1274;22537;-81
2024/01/31 15:07:05;;;;;;;60.90;38.10;;;;;;;3.00;81.80;100204.25;225805;1273;22577;-81
2024/01/31 15:12:08;;;;;;;63.40;41.70;;;;;;;2.98;81.77;100200.41;225731;1274;25006;-80
2024/01/31 15:17:10;;;;;;;60.10;38.10;;;;;;;2.95;81.96;100196.06;225995;1274;22565;-81
2024/01/31 15:22:11;;;;;;;59.90;39.70;;;;;;;2.87;81.94;100195.42;226225;1274;22558;-81
2024/01/31 15:27:17;;;;;;;56.80;37.80;;;;;;;2.72;82.00;100199.73;226470;1271;22543;-80
2024/01/31 15:32:20;;;;;;;60.10;39.50;;;;;;;2.52;82.16;100196.88;226714;1274;25473;-81
2024/01/31 15:37:21;;;;;;;56.50;36.80;;;;;;;2.37;82.74;100201.23;226651;1273;23043;-81
2024/01/31 15:42:23;;;;;;;53.30;35.60;;;;;;;2.22;82.73;100196.46;226415;1273;24575;-80
2024/01/31 15:47:25;;;;;;;54.00;32.40;;;;;;;2.08;82.91;100190.58;226582;1271;22560;-80
2024/01/31 15:52:27;;;;;;;58.30;37.50;;;;;;;1.98;83.11;100190.41;226491;1272;22617;-82
2024/01/31 15:57:29;;;;;;;70.80;42.10;;;;;;;1.88;83.29;100175.57;226481;1274;25429;-81
2024/01/31 16:02:32;;;;;;;66.30;42.50;;;;;;;1.80;83.34;100163.58;226246;1274;22864;-81
2024/01/31 16:07:34;;;;;;;62.10;42.10;;;;;;;1.70;83.43;100167.71;226447;1274;22551;-81
2024/01/31 16:12:36;;;;;;;66.70;41.60;;;;;;;1.62;83.84;100183.70;226441;1272;22540;-81
2024/01/31 16:17:38;;;;;;;64.80;44.80;;;;;;;1.57;83.88;100179.32;226637;1274;22529;-81
2024/01/31 16:22:43;;;;;;;66.00;41.20;;;;;;;1.53;84.08;100185.30;226263;1274;22548;-79
2024/01/31 16:27:45;;;;;;;58.40;37.50;;;;;;;1.52;84.32;100182.38;226419;1272;22575;-81
2024/01/31 16:32:50;;;;;;;57.60;36.80;;;;;;;1.52;84.31;100178.77;226538;1272;22530;-80
2024/01/31 16:37:53;;;;;;;57.50;37.20;;;;;;;1.48;84.53;100177.10;226447;1274;22656;-81
2024/01/31 16:42:55;;;;;;;57.10;36.80;;;;;;;1.41;84.48;100172.13;226310;1274;22559;-81
2024/01/31 16:47:57;;;;;;;53.30;34.70;;;;;;;1.34;84.45;100174.50;226558;1274;22566;-81
2024/01/31 16:52:59;;;;;;;55.20;36.10;;;;;;;1.24;84.40;100173.05;226514;1272;22895;-81
2024/01/31 16:58:01;;;;;;;59.10;37.10;;;;;;;1.15;84.69;100168.56;226443;1274;22557;-81
2024/01/31 17:03:04;;;;;;;58.70;36.80;;;;;;;1.07;84.69;100183.59;226539;1273;22564;-81
2024/01/31 17:08:06;;;;;;;58.90;36.80;;;;;;;1.01;84.98;100193.52;226271;1275;22556;-80
2024/01/31 17:13:15;;;;;;;50.80;31.00;;;;;;;0.97;85.12;100196.02;226547;1274;22575;-80
2024/01/31 17:18:18;;;;;;;68.20;40.40;;;;;;;0.94;85.15;100198.63;226305;1274;23193;-83
2024/01/31 17:23:23;;;;;;;59.30;34.80;;;;;;;0.91;85.32;100194.81;226354;1274;25360;-80
2024/01/31 17:28:26;;;;;;;58.30;36.80;;;;;;;0.92;85.26;100193.02;226448;1274;22510;-82
2024/01/31 17:33:28;;;;;;;65.40;41.00;;;;;;;1.00;85.51;100195.30;226508;1275;22539;-81
2024/01/31 17:38:32;;;;;;;59.40;37.10;;;;;;;1.14;85.63;100193.45;226559;1272;22619;-80
2024/01/31 17:43:34;;;;;;;61.00;39.40;;;;;;;1.29;85.86;100174.99;226577;1271;22579;-80
2024/01/31 17:48:36;;;;;;;60.90;39.90;;;;;;;1.44;85.59;100183.04;226492;1273;22558;-80
2024/01/31 17:53:38;;;;;;;65.10;41.90;;;;;;;1.56;85.49;100165.13;226447;1273;24204;-81
2024/01/31 17:58:40;;;;;;;61.40;39.90;;;;;;;1.65;85.38;100167.31;226596;1267;22546;-81
2024/01/31 18:03:42;;;;;;;63.40;39.90;;;;;;;1.72;85.33;100171.73;226430;1273;22552;-80
2024/01/31 18:08:44;;;;;;;67.80;40.60;;;;;;;1.81;85.21;100165.63;226514;1274;22544;-80
2024/01/31 18:13:49;;;;;;;65.90;41.40;;;;;;;1.88;85.12;100159.95;226412;1270;22559;-80
2024/01/31 18:18:59;;;;;;;69.30;40.60;;;;;;;1.95;85.09;100162.07;226426;1272;22681;-80
2024/01/31 18:24:02;;;;;;;58.90;37.80;;;;;;;2.02;84.87;100156.94;226535;1270;22610;-81
2024/01/31 18:29:06;;;;;;;60.00;39.00;;;;;;;2.07;84.93;100152.64;226525;1270;22643;-80
2024/01/31 18:34:08;;;;;;;64.70;40.20;;;;;;;2.11;84.75;100135.98;226411;1274;22593;-81
2024/01/31 18:39:10;;;;;;;67.90;43.20;;;;;;;2.15;84.69;100132.45;226431;1272;22500;-81
2024/01/31 18:44:12;;;;;;;73.90;43.80;;;;;;;2.19;84.64;100123.86;226405;1273;24311;-81
2024/01/31 18:49:17;;;;;;;62.40;40.90;;;;;;;2.25;84.52;100115.80;226287;1274;22553;-81
2024/01/31 18:54:20;;;;;;;59.50;38.60;;;;;;;2.28;84.41;100109.34;226371;1273;25475;-81
2024/01/31 18:59:22;;;;;;;66.10;43.10;;;;;;;2.29;84.32;100106.48;226501;1270;22566;-81
2024/01/31 19:04:24;;;;;;;73.90;45.60;;;;;;;2.29;84.24;100101.98;226264;1274;22555;-81
2024/01/31 19:09:27;;;;;;;67.90;42.80;;;;;;;2.29;84.28;100089.46;226343;1274;22555;-80
2024/01/31 19:14:29;;;;;;;69.80;43.60;;;;;;;2.29;84.27;100083.00;226556;1267;25475;-80
2024/01/31 19:19:32;;;;;;;67.50;40.90;;;;;;;2.29;84.13;100075.21;226604;1274;22639;-81
2024/01/31 19:24:35;;;;;;;69.40;42.50;;;;;;;2.28;84.20;100064.63;226607;1273;25278;-82
2024/01/31 19:29:37;;;;;;;64.10;40.50;;;;;;;2.28;84.26;100062.41;226502;1273;22550;-81
2024/01/31 19:34:39;;;;;;;73.10;45.00;;;;;;;2.24;84.22;100056.40;226440;1274;22594;-80
2024/01/31 19:39:43;;;;;;;69.30;43.40;;;;;;;2.19;84.16;100047.02;226651;1273;22543;-81
2024/01/31 19:44:46;;;;;;;70.40;44.30;;;;;;;2.14;84.24;100046.85;226581;1274;22538;-81
2024/01/31 19:49:52;;;;;;;75.50;45.80;;;;;;;2.09;84.27;100040.73;226563;1267;22551;-81
2024/01/31 19:54:55;;;;;;;76.10;46.40;;;;;;;2.03;84.36;100042.17;226513;1274;22552;-81
2024/01/31 19:59:58;;;;;;;73.30;44.90;;;;;;;1.98;84.38;100028.27;226515;1274;25376;-80
2024/01/31 20:05:01;;;;;;;73.70;43.90;;;;;;;1.94;84.44;100019.33;226472;1274;22543;-83
2024/01/31 20:10:05;;;;;;;73.10;44.30;;;;;;;1.91;84.41;100008.43;226584;1270;24913;-80
2024/01/31 20:15:08;;;;;;;71.00;44.00;;;;;;;1.86;84.31;99993.69;226386;1274;22604;-80
2024/01/31 20:20:12;;;;;;;66.90;41.80;;;;;;;1.81;84.40;99990.34;226403;1274;22575;-80
2024/01/31 20:25:15;;;;;;;73.30;43.90;;;;;;;1.79;84.60;99987.68;226501;1272;22548;-80
2024/01/31 20:30:20;;;;;;;72.50;43.60;;;;;;;1.82;84.68;99978.14;226494;1269;22562;-82
2024/01/31 20:35:24;;;;;;;69.20;43.00;;;;;;;1.86;84.67;99977.84;226431;1273;23050;-81
2024/01/31 20:40:27;;;;;;;73.40;46.30;;;;;;;1.91;84.73;99977.19;226405;1262;22590;-81
2024/01/31 20:45:34;;;;;;;66.80;41.20;;;;;;;1.94;84.63;99966.88;226091;1274;221461;-81
2024/01/31 20:50:36;;;;;;;70.30;42.70;;;;;;;1.98;84.78;99965.56;226492;1273;22554;-80
2024/01/31 20:55:39;;;;;;;66.30;40.10;;;;;;;2.02;84.73;99959.02;226341;1273;22546;-80
2024/01/31 21:00:41;;;;;;;64.30;38.20;;;;;;;2.05;84.70;99950.15;226566;1272;22555;-83
2024/01/31 21:05:44;;;;;;;63.90;40.40;;;;;;;2.10;84.80;99946.27;226488;1273;25413;-81
2024/01/31 21:10:46;;;;;;;62.30;37.80;;;;;;;2.16;84.85;99932.02;226418;1273;22554;-80
2024/01/31 21:15:48;;;;;;;61.80;38.70;;;;;;;2.19;84.85;99918.10;226541;1267;22546;-80
2024/01/31 21:20:51;;;;;;;70.70;43.50;;;;;;;2.21;84.69;99911.88;226408;1274;22562;-81
2024/01/31 21:25:54;;;;;;;67.70;41.40;;;;;;;2.22;84.61;99902.60;226627;1270;22558;-82
2024/01/31 21:30:56;;;;;;;63.90;41.50;;;;;;;2.21;84.59;99897.43;226484;1273;22595;-82
2024/01/31 21:35:58;;;;;;;61.30;38.40;;;;;;;2.19;84.66;99894.25;226382;1273;22554;-81
2024/01/31 21:41:00;;;;;;;59.10;37.00;;;;;;;2.19;84.69;99889.58;226436;1274;22496;-82
2024/01/31 21:46:02;;;;;;;53.80;33.30;;;;;;;2.21;84.70;99888.95;226498;1272;22540;-81
2024/01/31 21:51:08;;;;;;;53.90;33.90;;;;;;;2.21;84.76;99888.36;226642;1270;23291;-81
2024/01/31 21:56:16;;;;;;;53.40;33.60;;;;;;;2.22;84.49;99884.69;226487;1272;25970;-82
2024/01/31 22:01:18;;;;;;;52.00;32.30;;;;;;;2.21;84.71;99877.42;226470;1274;22644;-80
2024/01/31 22:06:20;;;;;;;53.60;33.00;;;;;;;2.23;84.70;99871.92;226396;1256;22573;-81
2024/01/31 22:11:22;;;;;;;55.60;33.70;;;;;;;2.22;84.62;99864.69;226546;1271;22557;-81
2024/01/31 22:16:25;;;;;;;53.60;33.00;;;;;;;2.21;84.92;99859.16;226597;1271;23074;-81
2024/01/31 22:21:27;;;;;;;51.90;33.60;;;;;;;2.20;84.73;99847.96;226636;1271;22569;-81
2024/01/31 22:26:35;;;;;;;51.40;34.60;;;;;;;2.20;84.92;99832.16;226424;1271;23035;-81
2024/01/31 22:31:42;;;;;;;54.10;33.10;;;;;;;2.21;85.06;99812.75;226465;1270;22551;-80
2024/01/31 22:36:45;;;;;;;53.40;33.70;;;;;;;2.21;85.01;99802.73;226593;1270;23227;-81
2024/01/31 22:41:47;;;;;;;43.00;28.10;;;;;;;2.18;85.03;99797.55;226480;1273;22580;-81
2024/01/31 22:46:49;;;;;;;45.70;28.80;;;;;;;2.16;85.04;99800.14;226543;1274;24254;-80
2024/01/31 22:51:51;;;;;;;50.80;32.10;;;;;;;2.11;85.03;99798.71;226420;1273;22556;-81
2024/01/31 22:56:55;;;;;;;51.40;32.50;;;;;;;2.02;84.97;99802.66;226636;1274;23279;-80
2024/01/31 23:01:57;;;;;;;51.40;32.40;;;;;;;1.94;85.13;99799.23;226556;1273;22554;-82